Time;durP1;ratioP1;P1;durP2;ratioP2;P2;SDS_P1;SDS_P2;PMS_P1;PMS_P2;Temp;Humidity;BMP_temperature;BMP_pressure;BME280_temperature;BME280_humidity;BME280_pressure;Samples;Min_cycle;Max_cycle;Signal;HPM_P1;HPM_P2
2021/05/26 00:00:27;;;;;;;1.65;0.93;;;;;;;;;;5033200;28;20458;-81
2021/05/26 00:02:53;;;;;;;3.05;0.90;;;;;;;;;;5015221;28;20124;-81
2021/05/26 00:05:18;;;;;;;1.77;0.73;;;;;;;;;;5016993;28;20044;-81
2021/05/26 00:07:44;;;;;;;3.08;0.73;;;;;;;;;;5024822;28;20410;-81
2021/05/26 00:10:10;;;;;;;2.25;0.65;;;;;;;;;;5015660;28;20042;-83
2021/05/26 00:12:35;;;;;;;3.60;1.23;;;;;;;;;;5016195;28;20033;-82
2021/05/26 00:15:02;;;;;;;3.17;0.90;;;;;;;;;;5016298;28;20045;-83
2021/05/26 00:17:29;;;;;;;1.75;0.60;;;;;;;;;;5059126;28;20167;-82
2021/05/26 00:19:56;;;;;;;2.38;0.82;;;;;;;;;;5039632;28;20045;-83
2021/05/26 00:22:21;;;;;;;4.80;1.13;;;;;;;;;;5017364;28;20043;-83
2021/05/26 00:24:47;;;;;;;3.03;0.82;;;;;;;;;;5057871;28;20041;-84
2021/05/26 00:27:12;;;;;;;3.53;1.00;;;;;;;;;;5032108;28;20033;-84
2021/05/26 00:29:39;;;;;;;3.35;1.00;;;;;;;;;;5033496;28;20045;-85
2021/05/26 00:32:04;;;;;;;3.10;0.90;;;;;;;;;;5044745;28;20043;-84
2021/05/26 00:34:31;;;;;;;2.05;0.70;;;;;;;;;;5045840;28;20029;-85
2021/05/26 00:36:56;;;;;;;3.88;1.10;;;;;;;;;;5059096;28;20045;-86
2021/05/26 00:39:23;;;;;;;2.30;0.80;;;;;;;;;;5066705;28;21054;-85
2021/05/26 00:41:48;;;;;;;3.72;0.88;;;;;;;;;;5050105;28;20041;-85
2021/05/26 00:44:15;;;;;;;2.25;0.70;;;;;;;;;;5016655;28;20458;-84
2021/05/26 00:46:45;;;;;;;3.03;0.75;;;;;;;;;;5043248;28;20029;-86
2021/05/26 00:49:13;;;;;;;2.13;0.60;;;;;;;;;;5044407;28;20400;-85
2021/05/26 00:51:41;;;;;;;2.33;0.73;;;;;;;;;;5026453;28;20056;-85
2021/05/26 00:54:07;;;;;;;2.20;0.68;;;;;;;;;;5050647;28;20044;-86
2021/05/26 00:56:33;;;;;;;3.28;1.08;;;;;;;;;;5034121;28;20040;-85
2021/05/26 00:59:01;;;;;;;3.90;1.40;;;;;;;;;;5044116;28;20029;-86
2021/05/26 01:01:30;;;;;;;2.25;0.63;;;;;;;;;;5043675;28;20052;-85
2021/05/26 01:03:56;;;;;;;3.10;0.93;;;;;;;;;;5042229;28;20037;-86
2021/05/26 01:06:23;;;;;;;2.97;1.08;;;;;;;;;;5033622;28;20115;-86
2021/05/26 01:08:49;;;;;;;2.90;0.80;;;;;;;;;;5033024;28;20053;-85
2021/05/26 01:11:14;;;;;;;1.90;0.73;;;;;;;;;;5033182;28;20056;-86
2021/05/26 01:13:39;;;;;;;2.05;0.93;;;;;;;;;;5016359;28;20033;-85
2021/05/26 01:16:06;;;;;;;2.25;0.57;;;;;;;;;;5032736;28;20048;-85
2021/05/26 01:18:34;;;;;;;2.60;0.80;;;;;;;;;;5016276;28;20045;-85
2021/05/26 01:21:01;;;;;;;2.80;0.77;;;;;;;;;;5016672;28;20041;-85
2021/05/26 01:23:27;;;;;;;1.42;0.50;;;;;;;;;;5040890;28;20033;-85
2021/05/26 01:25:54;;;;;;;4.18;0.80;;;;;;;;;;5040027;28;20032;-85
2021/05/26 01:28:20;;;;;;;3.88;1.15;;;;;;;;;;5022812;28;20106;-85
2021/05/26 01:30:47;;;;;;;1.85;0.52;;;;;;;;;;5032429;28;20099;-85
2021/05/26 01:33:13;;;;;;;3.53;0.73;;;;;;;;;;5029925;28;20144;-84
2021/05/26 01:35:40;;;;;;;2.10;0.52;;;;;;;;;;5016036;28;20128;-84
2021/05/26 01:38:05;;;;;;;2.22;0.60;;;;;;;;;;5020763;28;20096;-84
2021/05/26 01:40:32;;;;;;;2.50;1.00;;;;;;;;;;5039044;28;20073;-84
2021/05/26 01:42:58;;;;;;;3.22;0.80;;;;;;;;;;5041563;28;20033;-83
2021/05/26 01:45:24;;;;;;;4.80;1.73;;;;;;;;;;5022438;28;20039;-83
2021/05/26 01:47:50;;;;;;;2.78;1.05;;;;;;;;;;5031022;28;20537;-83
2021/05/26 01:50:22;;;;;;;2.15;0.60;;;;;;;;;;5014221;28;20033;-83
2021/05/26 01:52:58;;;;;;;3.05;0.55;;;;;;;;;;5041566;28;20033;-83
2021/05/26 01:55:23;;;;;;;3.70;0.75;;;;;;;;;;5056262;28;20090;-83
2021/05/26 01:57:49;;;;;;;2.88;0.68;;;;;;;;;;5053497;28;20048;-83
2021/05/26 02:00:16;;;;;;;2.88;0.80;;;;;;;;;;5014531;28;20043;-83
2021/05/26 02:02:41;;;;;;;2.60;0.68;;;;;;;;;;5014596;28;20041;-83
2021/05/26 02:05:07;;;;;;;4.13;1.45;;;;;;;;;;5031291;28;20170;-83
2021/05/26 02:07:33;;;;;;;2.63;0.70;;;;;;;;;;5054987;28;20052;-83
2021/05/26 02:09:58;;;;;;;1.10;0.50;;;;;;;;;;5031142;28;20037;-84
2021/05/26 02:12:32;;;;;;;2.95;0.70;;;;;;;;;;5014659;28;20044;-84
2021/05/26 02:14:58;;;;;;;3.67;0.77;;;;;;;;;;5042682;28;20033;-84
2021/05/26 02:17:24;;;;;;;2.63;0.57;;;;;;;;;;5030772;28;20183;-83
2021/05/26 02:19:50;;;;;;;2.83;0.77;;;;;;;;;;5039376;28;20037;-83
2021/05/26 02:22:16;;;;;;;2.58;0.60;;;;;;;;;;5014137;28;20115;-83
2021/05/26 02:24:42;;;;;;;3.17;0.80;;;;;;;;;;5014182;28;20132;-83
2021/05/26 02:27:08;;;;;;;1.88;0.52;;;;;;;;;;5022676;28;20148;-83
2021/05/26 02:29:33;;;;;;;2.72;1.30;;;;;;;;;;5013741;28;20036;-83
2021/05/26 02:32:00;;;;;;;1.40;0.60;;;;;;;;;;5014872;28;20032;-83
2021/05/26 02:34:25;;;;;;;2.72;0.75;;;;;;;;;;5013333;28;20036;-83
2021/05/26 02:36:51;;;;;;;3.28;0.68;;;;;;;;;;5036488;28;20079;-82
2021/05/26 02:39:16;;;;;;;2.28;0.60;;;;;;;;;;5014966;28;20033;-83
2021/05/26 02:41:43;;;;;;;3.97;0.90;;;;;;;;;;5029980;28;20052;-82
2021/05/26 02:44:08;;;;;;;2.58;0.88;;;;;;;;;;5013522;28;20159;-82
2021/05/26 02:46:34;;;;;;;3.03;1.05;;;;;;;;;;5022493;28;20041;-82
2021/05/26 02:49:00;;;;;;;2.00;0.45;;;;;;;;;;5046150;28;20041;-82
2021/05/26 02:51:26;;;;;;;2.55;0.60;;;;;;;;;;5057622;28;20041;-82
2021/05/26 02:53:52;;;;;;;2.30;0.77;;;;;;;;;;5034583;28;20741;-82
2021/05/26 02:56:18;;;;;;;2.35;0.70;;;;;;;;;;5058386;28;20056;-82
2021/05/26 02:58:43;;;;;;;3.30;0.68;;;;;;;;;;5017528;28;20032;-82
2021/05/26 03:01:09;;;;;;;3.03;0.60;;;;;;;;;;5027471;28;20129;-83
2021/05/26 03:03:35;;;;;;;1.70;0.77;;;;;;;;;;5033933;28;20040;-81
2021/05/26 03:06:00;;;;;;;3.13;0.70;;;;;;;;;;5033803;28;20037;-83
2021/05/26 03:08:26;;;;;;;1.52;0.65;;;;;;;;;;5060890;28;20037;-82
2021/05/26 03:10:56;;;;;;;2.13;0.70;;;;;;;;;;5042720;28;20056;-85
2021/05/26 03:13:24;;;;;;;3.00;0.60;;;;;;;;;;5017256;28;20036;-84
2021/05/26 03:15:49;;;;;;;2.05;0.50;;;;;;;;;;5034519;28;20131;-84
2021/05/26 03:18:16;;;;;;;1.50;0.50;;;;;;;;;;5018038;28;20124;-85
2021/05/26 03:20:41;;;;;;;1.15;0.35;;;;;;;;;;5068168;28;20102;-86
2021/05/26 03:23:07;;;;;;;2.25;0.43;;;;;;;;;;5040999;28;20033;-84
2021/05/26 03:25:32;;;;;;;2.67;0.63;;;;;;;;;;5067541;28;20053;-85
2021/05/26 03:27:59;;;;;;;2.25;0.40;;;;;;;;;;5034634;28;20533;-84
2021/05/26 03:30:24;;;;;;;1.50;0.40;;;;;;;;;;5017640;28;20053;-84
2021/05/26 03:32:50;;;;;;;1.85;0.60;;;;;;;;;;5018468;28;20034;-84
2021/05/26 03:35:21;;;;;;;1.58;0.40;;;;;;;;;;5020595;28;20043;-90
2021/05/26 03:37:48;;;;;;;1.73;0.52;;;;;;;;;;5020774;28;20021;-90
2021/05/26 03:40:14;;;;;;;2.05;0.50;;;;;;;;;;5047561;28;20051;-91
2021/05/26 03:42:41;;;;;;;2.28;0.50;;;;;;;;;;5020858;28;20033;-90
2021/05/26 03:45:08;;;;;;;1.60;0.50;;;;;;;;;;5051954;28;20044;-90
2021/05/26 03:47:35;;;;;;;1.88;0.50;;;;;;;;;;5062255;28;20496;-91
2021/05/26 03:50:01;;;;;;;2.72;0.52;;;;;;;;;;5052875;28;20048;-85
2021/05/26 03:52:26;;;;;;;2.42;0.65;;;;;;;;;;5021916;28;20029;-86
2021/05/26 03:54:54;;;;;;;1.67;0.60;;;;;;;;;;5045561;28;20037;-88
2021/05/26 03:57:19;;;;;;;1.85;0.35;;;;;;;;;;5068836;28;20106;-87
2021/05/26 03:59:46;;;;;;;1.50;0.50;;;;;;;;;;5019051;28;20041;-86
2021/05/26 04:02:13;;;;;;;1.73;0.40;;;;;;;;;;5048048;28;20132;-86
2021/05/26 04:04:41;;;;;;;1.73;0.40;;;;;;;;;;5018225;28;20040;-85
2021/05/26 04:07:08;;;;;;;2.22;0.32;;;;;;;;;;5018059;28;20040;-85
2021/05/26 04:09:34;;;;;;;2.47;0.50;;;;;;;;;;5050545;28;20098;-84
2021/05/26 04:11:59;;;;;;;1.65;0.30;;;;;;;;;;5050169;28;20045;-85
2021/05/26 04:14:26;;;;;;;1.73;0.50;;;;;;;;;;5042970;28;20055;-83
2021/05/26 04:16:51;;;;;;;1.00;0.30;;;;;;;;;;5069252;28;20040;-84
2021/05/26 04:19:19;;;;;;;1.73;0.50;;;;;;;;;;5052332;28;20036;-84
2021/05/26 04:21:44;;;;;;;1.70;0.40;;;;;;;;;;5052390;28;20057;-83
2021/05/26 04:24:10;;;;;;;1.27;0.40;;;;;;;;;;5052597;28;20047;-88
2021/05/26 04:26:36;;;;;;;1.10;0.38;;;;;;;;;;5053581;28;20037;-86
2021/05/26 04:29:03;;;;;;;2.28;0.25;;;;;;;;;;5069855;28;20046;-86
2021/05/26 04:31:30;;;;;;;1.67;0.32;;;;;;;;;;5053156;28;20035;-86
2021/05/26 04:33:56;;;;;;;0.88;0.45;;;;;;;;;;5053073;28;20033;-86
2021/05/26 04:36:22;;;;;;;1.15;0.30;;;;;;;;;;5052700;28;20025;-85
2021/05/26 04:38:47;;;;;;;1.00;0.30;;;;;;;;;;5052465;28;20132;-85
2021/05/26 04:41:13;;;;;;;0.60;0.20;;;;;;;;;;5052267;28;20049;-86
2021/05/26 04:43:38;;;;;;;0.65;0.20;;;;;;;;;;5018684;28;20041;-86
2021/05/26 04:46:04;;;;;;;0.98;0.28;;;;;;;;;;5019505;28;20029;-85
2021/05/26 04:48:31;;;;;;;0.80;0.35;;;;;;;;;;5052607;28;20503;-86
2021/05/26 04:50:58;;;;;;;1.35;0.40;;;;;;;;;;5019468;28;20032;-86
2021/05/26 04:53:24;;;;;;;1.88;0.38;;;;;;;;;;5018605;28;20041;-84
2021/05/26 04:55:50;;;;;;;1.25;0.25;;;;;;;;;;5051087;28;20029;-84
2021/05/26 04:58:17;;;;;;;0.65;0.20;;;;;;;;;;5035678;28;20033;-85
2021/05/26 05:00:42;;;;;;;1.15;0.30;;;;;;;;;;5031618;28;20037;-85
2021/05/26 05:03:08;;;;;;;1.95;0.30;;;;;;;;;;5057761;28;20029;-86
2021/05/26 05:05:33;;;;;;;0.73;0.20;;;;;;;;;;5052263;28;20029;-81
2021/05/26 05:07:59;;;;;;;1.60;0.20;;;;;;;;;;5016757;28;20052;-82
2021/05/26 05:10:25;;;;;;;1.65;0.30;;;;;;;;;;5029981;28;20041;-82
2021/05/26 05:12:50;;;;;;;2.50;0.20;;;;;;;;;;5015951;28;20037;-83
2021/05/26 05:15:16;;;;;;;1.75;0.28;;;;;;;;;;5013485;28;20123;-83
2021/05/26 05:17:47;;;;;;;3.35;0.43;;;;;;;;;;5026673;28;20049;-85
2021/05/26 05:20:19;;;;;;;7.00;0.93;;;;;;;;;;5038542;28;20368;-85
2021/05/26 05:22:44;;;;;;;5.63;0.60;;;;;;;;;;5054664;28;20033;-83
2021/05/26 05:25:10;;;;;;;5.53;0.70;;;;;;;;;;5046495;28;22062;-82
2021/05/26 05:27:36;;;;;;;5.68;0.70;;;;;;;;;;5030574;28;20115;-82
2021/05/26 05:30:05;;;;;;;3.17;0.30;;;;;;;;;;5014041;28;20059;-82
2021/05/26 05:32:31;;;;;;;3.53;1.02;;;;;;;;;;5012431;28;20021;-82
2021/05/26 05:34:57;;;;;;;3.55;0.40;;;;;;;;;;5019679;28;20929;-82
2021/05/26 05:37:23;;;;;;;1.90;0.30;;;;;;;;;;5031311;28;20037;-84
2021/05/26 05:39:51;;;;;;;0.70;0.20;;;;;;;;;;5015762;28;20072;-85
2021/05/26 05:42:17;;;;;;;2.78;0.30;;;;;;;;;;5032145;28;20086;-85
2021/05/26 05:44:43;;;;;;;3.38;0.43;;;;;;;;;;5042196;28;20182;-85
2021/05/26 05:47:08;;;;;;;3.97;0.88;;;;;;;;;;5012914;28;20033;-84
2021/05/26 05:49:34;;;;;;;3.22;0.40;;;;;;;;;;5039941;28;20044;-85
2021/05/26 05:52:00;;;;;;;1.63;0.65;;;;;;;;;;5067836;28;20033;-84
2021/05/26 05:54:26;;;;;;;2.78;0.45;;;;;;;;;;5068142;28;20146;-86
2021/05/26 05:56:52;;;;;;;1.80;0.60;;;;;;;;;;5018343;28;20033;-86
2021/05/26 05:59:18;;;;;;;1.40;0.32;;;;;;;;;;5031145;28;20748;-85
2021/05/26 06:01:46;;;;;;;3.03;0.73;;;;;;;;;;5056195;28;20037;-86
2021/05/26 06:04:11;;;;;;;2.33;0.30;;;;;;;;;;5037462;28;20037;-86
2021/05/26 06:06:37;;;;;;;5.32;0.40;;;;;;;;;;5064569;28;20057;-86
2021/05/26 06:09:03;;;;;;;2.30;0.20;;;;;;;;;;5084350;28;20079;-84
2021/05/26 06:11:29;;;;;;;4.05;0.50;;;;;;;;;;5017386;28;20508;-82
2021/05/26 06:13:54;;;;;;;2.92;0.40;;;;;;;;;;5034423;28;20029;-84
2021/05/26 06:16:20;;;;;;;4.18;1.10;;;;;;;;;;5017211;28;20029;-82
2021/05/26 06:18:45;;;;;;;4.10;0.50;;;;;;;;;;5017633;28;20442;-85
2021/05/26 06:21:11;;;;;;;2.05;0.30;;;;;;;;;;5033770;28;20033;-83
2021/05/26 06:23:36;;;;;;;2.47;0.30;;;;;;;;;;5017317;28;20398;-82
2021/05/26 06:26:02;;;;;;;5.40;0.90;;;;;;;;;;5029197;28;20435;-80
2021/05/26 06:28:27;;;;;;;8.52;1.13;;;;;;;;;;5058307;28;20441;-80
2021/05/26 06:30:56;;;;;;;1.45;0.20;;;;;;;;;;5049398;28;20556;-80
2021/05/26 06:33:21;;;;;;;1.98;0.50;;;;;;;;;;5048453;28;20033;-81
2021/05/26 06:35:46;;;;;;;7.72;0.73;;;;;;;;;;5066880;28;20454;-81
2021/05/26 06:38:12;;;;;;;2.80;0.43;;;;;;;;;;5017046;28;20445;-80
2021/05/26 06:40:37;;;;;;;2.40;0.30;;;;;;;;;;5016975;28;20041;-80
2021/05/26 06:43:03;;;;;;;1.73;0.50;;;;;;;;;;5033489;28;20384;-80
2021/05/26 06:45:28;;;;;;;2.30;0.30;;;;;;;;;;5050107;28;20388;-80
2021/05/26 06:47:54;;;;;;;2.58;0.20;;;;;;;;;;5032867;28;20091;-80
2021/05/26 06:50:19;;;;;;;1.25;0.40;;;;;;;;;;5049046;28;20442;-80
2021/05/26 06:52:44;;;;;;;0.98;0.32;;;;;;;;;;5066918;28;20060;-80
2021/05/26 06:55:12;;;;;;;1.25;0.40;;;;;;;;;;5033446;28;20037;-80
2021/05/26 06:57:38;;;;;;;0.93;0.25;;;;;;;;;;5016756;28;20037;-79
2021/05/26 07:00:04;;;;;;;5.10;1.15;;;;;;;;;;5033507;28;20041;-79
2021/05/26 07:02:30;;;;;;;2.17;0.40;;;;;;;;;;5033003;28;20455;-80
2021/05/26 07:04:55;;;;;;;2.35;0.35;;;;;;;;;;5033788;28;20043;-81
2021/05/26 07:07:22;;;;;;;1.05;0.40;;;;;;;;;;5066640;28;20093;-81
2021/05/26 07:09:47;;;;;;;1.02;0.22;;;;;;;;;;5028450;28;20075;-82
2021/05/26 07:12:14;;;;;;;1.25;0.20;;;;;;;;;;5035513;28;20457;-81
2021/05/26 07:14:39;;;;;;;1.85;0.30;;;;;;;;;;5029623;28;20029;-81
2021/05/26 07:17:05;;;;;;;1.38;0.30;;;;;;;;;;5046282;28;20392;-81
2021/05/26 07:19:30;;;;;;;0.65;0.22;;;;;;;;;;5049602;28;20040;-81
2021/05/26 07:21:55;;;;;;;1.23;0.40;;;;;;;;;;5050314;28;20541;-80
2021/05/26 07:24:21;;;;;;;2.15;0.32;;;;;;;;;;5049493;28;20407;-80
2021/05/26 07:26:46;;;;;;;2.05;0.30;;;;;;;;;;5049944;28;20139;-80
2021/05/26 07:29:13;;;;;;;1.85;0.30;;;;;;;;;;5016368;28;20411;-79
2021/05/26 07:31:39;;;;;;;2.38;0.60;;;;;;;;;;5016186;28;20089;-80
2021/05/26 07:34:07;;;;;;;1.58;0.43;;;;;;;;;;5029761;28;20427;-80
2021/05/26 07:36:33;;;;;;;0.95;0.20;;;;;;;;;;5049138;28;20048;-81
2021/05/26 07:39:01;;;;;;;1.40;0.40;;;;;;;;;;5045068;28;20043;-81
2021/05/26 07:41:26;;;;;;;1.23;0.30;;;;;;;;;;5036744;28;20040;-80
2021/05/26 07:43:52;;;;;;;2.25;0.52;;;;;;;;;;5032259;28;20086;-80
2021/05/26 07:46:17;;;;;;;1.27;0.40;;;;;;;;;;5068891;28;20033;-80
2021/05/26 07:48:43;;;;;;;3.38;0.43;;;;;;;;;;5034556;28;20407;-80
2021/05/26 07:51:09;;;;;;;1.23;0.45;;;;;;;;;;5036558;28;20037;-80
2021/05/26 07:53:35;;;;;;;1.48;0.68;;;;;;;;;;5019914;28;20525;-80
2021/05/26 07:56:01;;;;;;;1.73;0.60;;;;;;;;;;5036546;28;20044;-80
2021/05/26 07:58:26;;;;;;;3.33;0.65;;;;;;;;;;5052881;28;20029;-81
2021/05/26 08:00:51;;;;;;;1.92;0.52;;;;;;;;;;5015865;28;20113;-80
2021/05/26 08:03:17;;;;;;;2.22;0.75;;;;;;;;;;5019689;28;20041;-80
2021/05/26 08:05:42;;;;;;;2.20;0.88;;;;;;;;;;5049326;28;20488;-80
2021/05/26 08:08:08;;;;;;;3.13;1.17;;;;;;;;;;5083936;28;20461;-80
2021/05/26 08:10:33;;;;;;;4.57;1.15;;;;;;;;;;5036013;28;20053;-80
2021/05/26 08:12:59;;;;;;;6.60;2.22;;;;;;;;;;5051080;28;20450;-80
2021/05/26 08:15:24;;;;;;;7.78;2.22;;;;;;;;;;5018651;28;20407;-80
2021/05/26 08:17:49;;;;;;;7.22;2.38;;;;;;;;;;5052332;28;20052;-81
2021/05/26 08:20:15;;;;;;;6.72;2.30;;;;;;;;;;5052254;28;20406;-81
2021/05/26 08:22:41;;;;;;;5.57;2.90;;;;;;;;;;5052514;28;20029;-82
2021/05/26 08:25:07;;;;;;;7.63;2.13;;;;;;;;;;5048650;28;20025;-82
2021/05/26 08:27:32;;;;;;;5.68;2.05;;;;;;;;;;5032220;28;20037;-82
2021/05/26 08:30:01;;;;;;;6.53;1.90;;;;;;;;;;5030866;28;20952;-81
2021/05/26 08:32:27;;;;;;;5.57;1.70;;;;;;;;;;5035559;28;20028;-82
2021/05/26 08:34:55;;;;;;;5.30;1.63;;;;;;;;;;5049028;28;20577;-82
2021/05/26 08:37:20;;;;;;;3.15;1.30;;;;;;;;;;5034294;28;20124;-82
2021/05/26 08:39:47;;;;;;;4.72;1.23;;;;;;;;;;5035327;28;20037;-82
2021/05/26 08:42:18;;;;;;;2.92;1.02;;;;;;;;;;5035391;28;20090;-82
2021/05/26 08:44:44;;;;;;;3.33;0.80;;;;;;;;;;5035792;28;20043;-82
2021/05/26 08:47:14;;;;;;;1.85;0.70;;;;;;;;;;5027610;28;20029;-83
2021/05/26 08:49:42;;;;;;;2.50;0.80;;;;;;;;;;5018084;28;20123;-82
2021/05/26 08:52:07;;;;;;;3.05;1.40;;;;;;;;;;5018324;28;20550;-82
2021/05/26 08:54:33;;;;;;;4.47;0.65;;;;;;;;;;5068597;28;20044;-83
2021/05/26 08:56:58;;;;;;;3.03;0.77;;;;;;;;;;5015111;28;20116;-82
2021/05/26 08:59:25;;;;;;;2.33;0.60;;;;;;;;;;5048092;28;20029;-82
2021/05/26 09:01:53;;;;;;;2.65;0.70;;;;;;;;;;5060862;28;20033;-82
2021/05/26 09:04:29;;;;;;;2.22;0.70;;;;;;;;;;5024749;28;20648;-82
2021/05/26 09:07:10;;;;;;;2.97;0.80;;;;;;;;;;5047788;28;20529;-81
2021/05/26 09:09:49;;;;;;;2.97;0.70;;;;;;;;;;5047512;28;20068;-82
2021/05/26 09:12:15;;;;;;;4.32;1.25;;;;;;;;;;5031526;28;20037;-82
2021/05/26 09:14:40;;;;;;;3.13;0.85;;;;;;;;;;5020753;28;20091;-82
2021/05/26 09:17:12;;;;;;;3.15;0.50;;;;;;;;;;5031224;28;20492;-81
2021/05/26 09:19:38;;;;;;;2.13;0.47;;;;;;;;;;5048794;28;20044;-82
2021/05/26 09:22:18;;;;;;;0.77;0.30;;;;;;;;;;5051300;28;20418;-82
2021/05/26 09:24:43;;;;;;;1.70;0.57;;;;;;;;;;5034626;28;20156;-81
2021/05/26 09:27:10;;;;;;;1.25;0.50;;;;;;;;;;5067760;28;20399;-81
2021/05/26 09:29:37;;;;;;;1.02;0.50;;;;;;;;;;5050595;28;20033;-82
2021/05/26 09:32:16;;;;;;;1.27;0.55;;;;;;;;;;5038494;28;20045;-80
2021/05/26 09:34:43;;;;;;;1.60;0.30;;;;;;;;;;5034208;28;20025;-80
2021/05/26 09:37:12;;;;;;;0.85;0.30;;;;;;;;;;5050632;28;20028;-81
2021/05/26 09:39:54;;;;;;;0.80;0.32;;;;;;;;;;5018076;28;20071;-81
2021/05/26 09:42:36;;;;;;;3.27;0.30;;;;;;;;;;5034139;28;20049;-81
2021/05/26 09:45:25;;;;;;;0.50;0.20;;;;;;;;;;5034266;28;20333;-80
2021/05/26 09:47:54;;;;;;;1.42;0.30;;;;;;;;;;5028072;28;20061;-80
2021/05/26 09:50:36;;;;;;;1.25;0.38;;;;;;;;;;5066668;28;20091;-81
2021/05/26 09:53:10;;;;;;;1.05;0.20;;;;;;;;;;5034179;28;20108;-80
2021/05/26 09:55:43;;;;;;;0.95;0.50;;;;;;;;;;5045702;28;20040;-80
2021/05/26 09:58:13;;;;;;;1.42;0.25;;;;;;;;;;5049428;28;20400;-80
2021/05/26 10:00:41;;;;;;;0.88;0.20;;;;;;;;;;5032272;28;20048;-79
2021/05/26 10:03:07;;;;;;;1.75;0.20;;;;;;;;;;5030440;28;20037;-79
2021/05/26 10:05:34;;;;;;;0.82;0.28;;;;;;;;;;5059164;28;20068;-79
2021/05/26 10:08:00;;;;;;;0.50;0.30;;;;;;;;;;5063447;28;20045;-80
2021/05/26 10:10:29;;;;;;;0.90;0.20;;;;;;;;;;5047272;28;20040;-79
2021/05/26 10:12:59;;;;;;;1.17;0.20;;;;;;;;;;5066683;28;20052;-79
2021/05/26 10:15:25;;;;;;;1.00;0.38;;;;;;;;;;5066532;28;20506;-79
2021/05/26 10:17:53;;;;;;;1.23;0.20;;;;;;;;;;5033322;28;20072;-79
2021/05/26 10:20:20;;;;;;;2.53;0.22;;;;;;;;;;5033725;28;20043;-79
2021/05/26 10:22:45;;;;;;;1.27;0.30;;;;;;;;;;5033862;28;20044;-79
2021/05/26 10:25:12;;;;;;;1.33;0.47;;;;;;;;;;5013973;28;20429;-79
2021/05/26 10:27:42;;;;;;;0.63;0.10;;;;;;;;;;5081406;28;20029;-80
2021/05/26 10:30:08;;;;;;;0.45;0.20;;;;;;;;;;5034028;28;20092;-79
2021/05/26 10:32:50;;;;;;;0.73;0.20;;;;;;;;;;5016927;28;20064;-79
2021/05/26 10:35:15;;;;;;;1.35;0.20;;;;;;;;;;5080264;28;20135;-79
2021/05/26 10:37:42;;;;;;;2.88;1.00;;;;;;;;;;5063686;28;20029;-79
2021/05/26 10:40:22;;;;;;;2.58;0.52;;;;;;;;;;5050039;28;20037;-79
2021/05/26 10:42:48;;;;;;;3.20;1.23;;;;;;;;;;5051501;28;20122;-79
2021/05/26 10:45:13;;;;;;;6.25;3.25;;;;;;;;;;5016610;28;20033;-79
2021/05/26 10:47:39;;;;;;;7.13;2.75;;;;;;;;;;5033356;28;20041;-78
2021/05/26 10:50:05;;;;;;;82.03;74.00;;;;;;;;;;5050058;28;20037;-79
2021/05/26 10:52:55;;;;;;;29.55;23.95;;;;;;;;;;5056891;28;20107;-79
2021/05/26 10:55:39;;;;;;;21.77;13.70;;;;;;;;;;5066221;28;20025;-79
2021/05/26 10:58:27;;;;;;;16.15;11.60;;;;;;;;;;5079892;28;20033;-79
2021/05/26 11:00:55;;;;;;;14.38;8.68;;;;;;;;;;5045739;28;20025;-79
2021/05/26 11:03:23;;;;;;;11.50;7.80;;;;;;;;;;5046548;28;20041;-79
2021/05/26 11:05:50;;;;;;;12.23;8.02;;;;;;;;;;5071971;28;20049;-79
2021/05/26 11:14:01;;;;;;;9.95;7.85;;;;;;;;;;5070217;28;20067;-79
2021/05/26 11:16:37;;;;;;;12.65;8.30;;;;;;;;;;5031698;28;20040;-79
2021/05/26 11:19:12;;;;;;;8.27;6.28;;;;;;;;;;5034094;28;20032;-79
2021/05/26 11:21:38;;;;;;;11.38;6.30;;;;;;;;;;5057884;28;20043;-79
2021/05/26 11:24:05;;;;;;;9.73;6.32;;;;;;;;;;5069815;28;20418;-79
2021/05/26 11:26:34;;;;;;;8.55;4.45;;;;;;;;;;5047723;28;20037;-80
2021/05/26 11:28:59;;;;;;;6.95;4.93;;;;;;;;;;5050669;28;20041;-79
2021/05/26 11:31:25;;;;;;;5.80;3.20;;;;;;;;;;5069611;28;20051;-80
2021/05/26 11:33:57;;;;;;;6.45;3.53;;;;;;;;;;5069888;28;20403;-79
2021/05/26 11:36:44;;;;;;;5.40;3.67;;;;;;;;;;5019061;28;20503;-81
2021/05/26 11:39:36;;;;;;;6.78;3.15;;;;;;;;;;5046737;28;20087;-79
2021/05/26 11:42:11;;;;;;;3.85;2.35;;;;;;;;;;5061684;28;20072;-79
2021/05/26 11:44:59;;;;;;;4.15;2.92;;;;;;;;;;5021100;28;20037;-79
2021/05/26 11:47:46;;;;;;;4.50;2.38;;;;;;;;;;5053464;28;20041;-79
2021/05/26 11:50:19;;;;;;;4.78;2.13;;;;;;;;;;5053109;28;20507;-81
2021/05/26 11:53:17;;;;;;;4.35;2.40;;;;;;;;;;5052783;28;20058;-81
2021/05/26 11:55:47;;;;;;;3.55;1.70;;;;;;;;;;5036241;28;20403;-81
2021/05/26 11:58:13;;;;;;;3.70;1.80;;;;;;;;;;5034427;28;20420;-81
2021/05/26 12:00:38;;;;;;;4.80;1.83;;;;;;;;;;5035957;28;20045;-80
2021/05/26 12:03:12;;;;;;;3.53;1.85;;;;;;;;;;5052925;28;20438;-81
2021/05/26 12:05:49;;;;;;;3.72;1.70;;;;;;;;;;5052476;28;20044;-82
2021/05/26 12:08:16;;;;;;;3.38;1.67;;;;;;;;;;5031247;28;20033;-81
2021/05/26 12:10:43;;;;;;;2.75;1.30;;;;;;;;;;5052989;28;20087;-81
2021/05/26 12:13:08;;;;;;;3.75;1.30;;;;;;;;;;5021494;28;20029;-81
2021/05/26 12:15:34;;;;;;;6.22;1.48;;;;;;;;;;5038524;28;20049;-82
2021/05/26 12:17:59;;;;;;;4.10;1.90;;;;;;;;;;5044426;28;20116;-82
2021/05/26 12:20:25;;;;;;;4.78;1.45;;;;;;;;;;5050514;28;20393;-82
2021/05/26 12:22:51;;;;;;;3.47;1.55;;;;;;;;;;5048318;28;20527;-81
2021/05/26 12:25:18;;;;;;;5.07;1.20;;;;;;;;;;5037592;28;20126;-84
2021/05/26 12:27:45;;;;;;;4.00;1.63;;;;;;;;;;5015953;28;20029;-84
2021/05/26 12:30:21;;;;;;;2.58;0.93;;;;;;;;;;5020207;28;20062;-82
2021/05/26 12:32:50;;;;;;;4.47;1.25;;;;;;;;;;5032427;28;20513;-83
2021/05/26 12:35:26;;;;;;;5.32;1.02;;;;;;;;;;5016296;28;20045;-82
2021/05/26 12:37:53;;;;;;;3.28;1.05;;;;;;;;;;5031944;28;20036;-82
2021/05/26 12:40:24;;;;;;;3.63;0.90;;;;;;;;;;5016318;28;20049;-83
2021/05/26 12:42:49;;;;;;;2.73;1.13;;;;;;;;;;5035517;28;20376;-84
2021/05/26 12:45:22;;;;;;;2.25;0.80;;;;;;;;;;5035227;28;20040;-85
2021/05/26 12:47:48;;;;;;;4.85;1.65;;;;;;;;;;5018373;28;20037;-81
2021/05/26 12:50:17;;;;;;;2.25;1.20;;;;;;;;;;5065568;28;20091;-81
2021/05/26 12:52:43;;;;;;;3.55;1.10;;;;;;;;;;5046271;28;20810;-80
2021/05/26 12:55:11;;;;;;;3.40;0.90;;;;;;;;;;5013722;28;20115;-80
2021/05/26 12:57:39;;;;;;;3.53;1.42;;;;;;;;;;5037767;28;20032;-80
2021/05/26 13:00:08;;;;;;;3.00;1.55;;;;;;;;;;5040704;28;20064;-81
2021/05/26 13:02:36;;;;;;;2.70;1.00;;;;;;;;;;5056645;28;20042;-81
2021/05/26 13:05:03;;;;;;;2.85;1.20;;;;;;;;;;5055363;28;20646;-83
2021/05/26 13:07:39;;;;;;;2.45;1.17;;;;;;;;;;5028486;28;20048;-91
2021/05/26 13:10:21;;;;;;;3.30;1.10;;;;;;;;;;5035045;28;20065;-91
2021/05/26 13:12:50;;;;;;;5.22;1.40;;;;;;;;;;5059330;28;20087;-90
2021/05/26 13:15:19;;;;;;;4.47;1.13;;;;;;;;;;5014984;28;20037;-81
2021/05/26 13:17:45;;;;;;;8.40;1.63;;;;;;;;;;5025651;28;20116;-81
2021/05/26 13:20:21;;;;;;;5.63;1.25;;;;;;;;;;5050874;28;20116;-81
2021/05/26 13:22:46;;;;;;;10.20;2.10;;;;;;;;;;5044747;28;20045;-81
2021/05/26 13:25:12;;;;;;;7.20;1.50;;;;;;;;;;5038443;28;20029;-80
2021/05/26 13:27:44;;;;;;;5.05;1.13;;;;;;;;;;5047906;28;20114;-80
2021/05/26 13:30:10;;;;;;;4.03;1.33;;;;;;;;;;5020549;28;20581;-80
2021/05/26 13:32:35;;;;;;;2.90;1.08;;;;;;;;;;5014132;28;20034;-79
2021/05/26 13:35:01;;;;;;;4.55;1.25;;;;;;;;;;5043771;28;20521;-79
2021/05/26 13:37:26;;;;;;;5.57;1.38;;;;;;;;;;5040687;28;20433;-79
2021/05/26 13:39:51;;;;;;;5.03;1.23;;;;;;;;;;5040471;28;20449;-80
2021/05/26 13:42:17;;;;;;;9.45;1.20;;;;;;;;;;5031181;28;20388;-80
2021/05/26 13:44:42;;;;;;;3.30;1.08;;;;;;;;;;5036258;28;20048;-79
2021/05/26 13:47:08;;;;;;;5.75;1.05;;;;;;;;;;5030580;28;20045;-79
2021/05/26 13:49:33;;;;;;;4.68;1.42;;;;;;;;;;5048423;28;20064;-79
2021/05/26 13:51:59;;;;;;;5.65;0.93;;;;;;;;;;5031650;28;20128;-79
2021/05/26 13:54:27;;;;;;;6.90;1.30;;;;;;;;;;5047238;28;20078;-78
2021/05/26 13:56:53;;;;;;;3.10;1.13;;;;;;;;;;5047030;28;20048;-79
2021/05/26 13:59:19;;;;;;;3.65;1.20;;;;;;;;;;5030576;28;20400;-79
2021/05/26 14:01:44;;;;;;;4.63;1.00;;;;;;;;;;5055922;28;20119;-79
2021/05/26 14:04:10;;;;;;;5.30;1.40;;;;;;;;;;5047042;28;20453;-79
2021/05/26 14:06:35;;;;;;;2.60;0.85;;;;;;;;;;5047632;28;20052;-78
2021/05/26 14:09:01;;;;;;;6.88;1.90;;;;;;;;;;5047496;28;20128;-78
2021/05/26 14:11:26;;;;;;;5.05;1.50;;;;;;;;;;5022887;28;20087;-78
2021/05/26 14:13:53;;;;;;;5.55;1.17;;;;;;;;;;5058187;28;20033;-78
2021/05/26 14:16:18;;;;;;;4.25;1.00;;;;;;;;;;5047025;28;20049;-78
2021/05/26 14:18:44;;;;;;;6.13;1.55;;;;;;;;;;5038434;28;20625;-78
2021/05/26 14:21:09;;;;;;;5.72;2.45;;;;;;;;;;5011237;28;20137;-78
2021/05/26 14:23:35;;;;;;;4.00;1.08;;;;;;;;;;5044486;28;20045;-77
2021/05/26 14:26:00;;;;;;;3.80;1.00;;;;;;;;;;5043978;28;20121;-78
2021/05/26 14:28:26;;;;;;;3.50;1.23;;;;;;;;;;5026328;28;20037;-77
2021/05/26 14:30:53;;;;;;;4.93;1.27;;;;;;;;;;5014371;28;20041;-78
2021/05/26 14:33:19;;;;;;;4.35;1.50;;;;;;;;;;5046520;28;20029;-78
2021/05/26 14:35:44;;;;;;;4.82;1.42;;;;;;;;;;5046527;28;20044;-78
2021/05/26 14:38:19;;;;;;;3.78;0.85;;;;;;;;;;5013425;28;20041;-77
2021/05/26 14:40:45;;;;;;;3.05;1.05;;;;;;;;;;5028231;28;20135;-78
2021/05/26 14:43:11;;;;;;;3.42;1.10;;;;;;;;;;5013963;28;20898;-79
2021/05/26 14:45:36;;;;;;;2.97;1.10;;;;;;;;;;5021571;28;20396;-79
2021/05/26 14:48:02;;;;;;;2.08;1.08;;;;;;;;;;5026082;28;20406;-79
2021/05/26 14:50:27;;;;;;;1.67;0.73;;;;;;;;;;5049460;28;20556;-80